Terminal Aerodrome Forecast
Issued by NWS Des Moines, IA

Home | Current Version | Previous Version | Text Only | Print | Product List | Glossary On
Versions: 1 2 3 4 5 6 7 8 9 10 11 12 13 14 15 16 17 18 19 20 21 22 23 24 25 26 27 28
000
FTUS43 KDMX 301319 AAA
TAFALO
TAF AMD
KALO 301319Z 3013/3112 36012G18KT P6SM BKN012 OVC016
     FM301500 01015G22KT P6SM SCT017 OVC025
     FM301800 02014G20KT P6SM SCT030 BKN100
     FM310100 04007KT P6SM FEW120=

USA.gov is the U.S. government's official web portal to all federal, state and local government web resources and services.